aviador You're here:

K27K Decoded Metar

in
Report Time2018-04-26 13:15:00
UTC Time2018-04-26 13:28:13
Flight Rules vfr VFR
Wind360° at 03 kt
Visibility9999 m
Phenomena:N/A
Clouds:Broken 050 Hf
Expected CloudBase > 2,400 ft AGL from Temp-Dew spread
Ceiling5,000 ft
Temp10°C
Dew Point04°C (67% RH)
AAT7.6°C
QNH1013 hPa
Raw Report
METAR K27K 261315Z AUTO 36003KT 10SM BKN050 10/04 A2992 RMK AO1=

Extra information for K27K:More info

Social comments